x

Smith Island, Wa (sisw1) Weather Station

8:00 - Fri 18th Aug 2017 All times are PDT. -7 hours from GMT.

  • Wind
    11mph, 14mph gusts
  • Luft Temp 58°f
  • Sea Pressure 1021.2mb
  • Smith Island, Wa
  • Smith Island, Wa

More Historic Weather Station data

Upgrade to MSW Pro to gain access to the past 30 days of data for over 8000 Wavebouys and Weather Stations around the globe.

Join

Comparision Forecast

View Surf forecast
   
Fr 08/18 8:00 11 14 mph 1021.2mb 58f
7:00 13 16 mph 1021mb 57f
6:00 17 20 mph 1021mb 57f
5:00 16 17 mph 1020.6mb 55f
4:00 21 24 mph 1020.7mb 56f
3:00 23 25 mph 1020.4mb 56f
2:00 24 29 mph 1020.3mb 56f
1:00 22 25 mph 1020.6mb 55f
12:00 22 26 mph 1020.8mb 55f
Do 08/17 11:00 22 26 mph 1021.2mb 56f
10:00 23 25 mph 1020.9mb 56f
9:00 23 25 mph 1020.9mb 56f
8:00 20 28 mph 1020.7mb 57f
7:00 21 24 mph 1020.8mb 57f
6:00 18 22 mph 1020.9mb 57f
5:00 13 15 mph 1021.6mb 58f
4:00 11 13 mph 1022.1mb 58f
3:00 10 10 mph 1022.5mb 58f
2:00 9 10 mph 1022.9mb 62f
1:00 9 9 mph 1023mb 58f
12:00 10 11 mph 1022.9mb 57f
11:00 15 16 mph 1022.7mb 55f
10:00 15 16 mph 1022.2mb 55f
9:00 16 17 mph 1022mb 55f
8:00 16 17 mph 1021.8mb 54f
7:00 16 17 mph 1021.2mb 53f
6:00 17 18 mph 1020.9mb 54f
5:00 17 18 mph 1020.6mb 54f
4:00 21 22 mph 1019.9mb 55f
3:00 17 22 mph 1019.6mb 55f
2:00 20 25 mph 1019.2mb 55f
1:00 17 23 mph 1019.1mb 54f
12:00 17 23 mph 1019mb 54f
Mi 08/16 11:00 25 28 mph 1018.6mb 55f
10:00 22 25 mph 1018.4mb 55f
9:00 24 26 mph 1018.3mb 56f
8:00 23 23 mph 1017.8mb 56f
7:00 23 24 mph 1018mb 58f
6:00 25 26 mph 1017.9mb 59f
5:00 9 13 mph 1018.9mb 61f
4:00 10 11 mph 1019.2mb 61f
3:00 3 5 mph 1019.7mb 62f
2:00 6 8 mph 1020.1mb 61f
1:00 14 15 mph 1019.9mb 59f
12:00 17 18 mph 1019.6mb 57f
11:00 16 18 mph 1019.5mb 58f
10:00 11 14 mph 1019.6mb 57f
9:00 14 15 mph 1019.6mb 55f
8:00 18 21 mph 1019.1mb 56f
7:00 15 17 mph 1018.5mb 53f
6:00 18 20 mph 1018.1mb 53f
5:00 15 16 mph 1018mb 54f
4:00 10 11 mph 1017.9mb 54f
3:00 14 18 mph 1017mb 54f
2:00 18 24 mph 1016.6mb 55f
1:00 18 28 mph 1016.4mb 55f
12:00 21 29 mph 1016.2mb 55f
Di 08/15 11:00 22 28 mph 1016.1mb 56f
10:00 20 25 mph 1015.8mb 56f
9:00 23 25 mph 1015.5mb 55f
8:00 21 25 mph 1015.2mb 57f
7:00 16 18 mph 1015.4mb 56f
6:00 9 10 mph 1015.5mb 56f
5:00 5 8 mph 1015.4mb 58f
4:00 6 9 mph 1015.7mb 59f
3:00 5 6 mph 1016mb 59f
2:00 6 6 mph 1016mb 56f
1:00 5 6 mph 1015.9mb 55f
12:00 3 5 mph 1016mb 54f
11:00 3 3 mph 1015.8mb 52f
10:00 5 6 mph 1015.8mb 51f
9:00 5 6 mph 1015.2mb 51f
8:00 7 9 mph 1015.1mb 51f
7:00 9 10 mph 1014.5mb 51f
6:00 7 7 mph 1014.3mb 51f
5:00 8 10 mph 1013.8mb 52f
4:00 10 11 mph 1013.8mb 52f
3:00 8 11 mph 1013.9mb 51f
2:00 14 15 mph 1013.7mb 51f
1:00 8 10 mph 1013.8mb 52f
12:00 7 13 mph 1013.8mb 53f
Mo 08/14 11:00 14 18 mph 1013.4mb 53f
10:00 15 20 mph 1013.6mb 54f
9:00 13 15 mph 1013.8mb 54f
8:00 13 15 mph 1013.7mb 55f
7:00 10 13 mph 1013.9mb 56f
6:00 7 8 mph 1014.6mb 57f